Impacts TAF Board
For situational awareness. Not to be used for flight planning purposes.
IDs:

KTPA - Tampa Intl Arpt, FL, US

Issued at 1134 UTC 21 Feb 2019
Updated at 1419 UTC 21 Feb 2019
Potential Impact None Slight Moderate High
Time1353Z 21/15Z 21/16Z 21/17Z 21/18Z 21/19Z 21/20Z 21/21Z 21/22Z 21/23Z 22/00Z 22/01Z 22/02Z 22/03Z>>
Type OBS PRVL PRVL PRVL PRVL PRVL PRVL PRVL PRVL PRVL PRVL PRVL PRVL PRVL
VIS 10 >6 >6 >6 >6 >6 >6 >6 >6 >6 >6 >6 >6 >6
CIG -- 35 35 35 35 -- -- -- -- -- 50 50 50 50
Cover FEW BKN BKN BKN BKN SCT SCT SCT SCT SCT BKN BKN BKN BKN
FltCat VFR VFR VFR VFR VFR VFR VFR VFR VFR VFR VFR VFR VFR VFR
WX -- -- -- -- -- -- -- -- -- -- -- -- -- --
WDir 110 150 150 150 150 210 210 210 210 210 VRB VRB VRB VRB
WSpd 7 8 8 8 8 6 6 6 6 6 4 4 4 4
WGst -- -- -- -- -- -- -- -- -- -- -- -- -- --
Raw TAF
KTPA 211134Z 2112/2218 13003KT P6SM SKC
  FM211400 15008KT P6SM BKN035
  FM211900 21006KT P6SM SCT050
  FM220000 VRB04KT P6SM BKN050
  FM220900 VRB03KT 6SM BR SCT050
  FM221400 14008KT P6SM SCT025


Raw METAR
KTPA 211353Z 11007KT 10SM FEW015 23/20 A3015 RMK AO2 SLP208 T02330200
KTPA 211253Z 11005KT 10SM CLR 22/19 A3012 RMK AO2 SLP200 T02170194
KTPA 211153Z 12004KT 10SM CLR 21/19 A3010 RMK AO2 SLP194 T02060189 10233 20206 53010

METAR Board
Radar Display
Forecast Discussion
For situational awareness. Not to be used for flight planning purposes.